CDG2139 ZSAM-ZUCK
Flight info
| Callsign | CDG2139 |
|---|---|
| Flight time | N/A |
| Altitude | 34100 |
| Route | NUSPA W598 DABER W155 VETIB DCT NUVGA DCT XEBUL DCT MABAG DCT WYN G586 QP B330 ELKAL W179 SUMUN W3 ASIPO W678 SEGDA |
| Aircraft | B738/M-SDE2E3FGHIRWXY/LB1 |
Departure
| Time | 2026-04-28 08:51 |
|---|---|
| Airport | Xiamen Gaoqi International Airport (ZSAM) |
Arrival
| Time | N/A |
|---|---|
| Airport | Chongqing Jiangbei International Airport (ZUCK) |
| Time | Latitude | Longitude | Altitude | Speed | Heading |
|---|---|---|---|---|---|
| 2026-04-28 08:12 | 24.55064 | 118.14229 | 75 ft | 0 kts | 86° |
| 2026-04-28 08:41 | 24.55064 | 118.14233 | 75 ft | 1 kts | 86° |
| 2026-04-28 08:41 | 24.55069 | 118.14261 | 75 ft | 6 kts | 69° |
| 2026-04-28 08:41 | 24.55110 | 118.14280 | 75 ft | 6 kts | 346° |
| 2026-04-28 08:41 | 24.55151 | 118.14257 | 75 ft | 6 kts | 309° |
| 2026-04-28 08:42 | 24.55144 | 118.14204 | 75 ft | 8 kts | 232° |
| 2026-04-28 08:42 | 24.55102 | 118.14147 | 75 ft | 10 kts | 231° |
| 2026-04-28 08:42 | 24.55053 | 118.14079 | 75 ft | 12 kts | 232° |
| 2026-04-28 08:42 | 24.55001 | 118.14007 | 75 ft | 11 kts | 231° |
| 2026-04-28 08:43 | 24.54952 | 118.13939 | 75 ft | 10 kts | 231° |
| 2026-04-28 08:43 | 24.54903 | 118.13869 | 75 ft | 13 kts | 232° |
| 2026-04-28 08:43 | 24.54837 | 118.13776 | 75 ft | 17 kts | 232° |
| 2026-04-28 08:43 | 24.54761 | 118.13670 | 76 ft | 17 kts | 232° |
| 2026-04-28 08:44 | 24.54680 | 118.13557 | 76 ft | 19 kts | 232° |
| 2026-04-28 08:44 | 24.54592 | 118.13434 | 76 ft | 20 kts | 232° |
| 2026-04-28 08:44 | 24.54507 | 118.13316 | 76 ft | 19 kts | 232° |
| 2026-04-28 08:44 | 24.54420 | 118.13193 | 76 ft | 20 kts | 234° |
| 2026-04-28 08:45 | 24.54336 | 118.13068 | 76 ft | 19 kts | 233° |
| 2026-04-28 08:45 | 24.54255 | 118.12952 | 76 ft | 18 kts | 232° |
| 2026-04-28 08:45 | 24.54189 | 118.12860 | 76 ft | 9 kts | 232° |
| 2026-04-28 08:45 | 24.54191 | 118.12796 | 76 ft | 8 kts | 301° |
| 2026-04-28 08:46 | 24.54186 | 118.12736 | 76 ft | 8 kts | 233° |
| 2026-04-28 08:46 | 24.54143 | 118.12676 | 76 ft | 11 kts | 231° |
| 2026-04-28 08:46 | 24.54083 | 118.12593 | 76 ft | 15 kts | 232° |
| 2026-04-28 08:46 | 24.54005 | 118.12484 | 77 ft | 19 kts | 232° |
| 2026-04-28 08:47 | 24.53914 | 118.12357 | 77 ft | 21 kts | 231° |
| 2026-04-28 08:47 | 24.53825 | 118.12231 | 77 ft | 20 kts | 232° |
| 2026-04-28 08:47 | 24.53739 | 118.12111 | 77 ft | 19 kts | 232° |
| 2026-04-28 08:47 | 24.53655 | 118.11993 | 77 ft | 20 kts | 232° |
| 2026-04-28 08:48 | 24.53557 | 118.11856 | 77 ft | 23 kts | 232° |
| 2026-04-28 08:48 | 24.53457 | 118.11717 | 77 ft | 22 kts | 232° |
| 2026-04-28 08:48 | 24.53399 | 118.11628 | 77 ft | 8 kts | 253° |
| 2026-04-28 08:48 | 24.53405 | 118.11564 | 77 ft | 8 kts | 284° |
| 2026-04-28 08:49 | 24.53424 | 118.11501 | 77 ft | 6 kts | 309° |
| 2026-04-28 08:49 | 24.53462 | 118.11471 | 77 ft | 6 kts | 334° |
| 2026-04-28 08:49 | 24.53498 | 118.11484 | 77 ft | 5 kts | 47° |
| 2026-04-28 08:49 | 24.53507 | 118.11494 | 77 ft | 0 kts | 51° |
| 2026-04-28 08:50 | 24.53512 | 118.11500 | 77 ft | 5 kts | 51° |
| 2026-04-28 08:50 | 24.53689 | 118.11749 | 77 ft | 79 kts | 52° |
| 2026-04-28 08:50 | 24.54171 | 118.12423 | 77 ft | 144 kts | 52° |
| 2026-04-28 08:50 | 24.54888 | 118.13429 | 297 ft | 177 kts | 53° |
| 2026-04-28 08:51 | 24.55646 | 118.14461 | 1018 ft | 179 kts | 53° |
| 2026-04-28 08:51 | 24.56414 | 118.15510 | 1760 ft | 177 kts | 53° |
| 2026-04-28 08:51 | 24.57178 | 118.16573 | 2196 ft | 180 kts | 54° |
| 2026-04-28 08:51 | 24.57960 | 118.17678 | 2562 ft | 186 kts | 54° |
| 2026-04-28 08:52 | 24.58756 | 118.18804 | 2988 ft | 188 kts | 55° |
| 2026-04-28 08:52 | 24.59575 | 118.19958 | 3423 ft | 198 kts | 54° |
| 2026-04-28 08:52 | 24.60458 | 118.21195 | 3844 ft | 212 kts | 54° |
| 2026-04-28 08:52 | 24.61401 | 118.22517 | 4282 ft | 228 kts | 53° |
| 2026-04-28 08:53 | 24.62256 | 118.23972 | 4914 ft | 231 kts | 72° |
| 2026-04-28 08:53 | 24.62428 | 118.25709 | 5571 ft | 229 kts | 102° |
| 2026-04-28 08:53 | 24.61955 | 118.27351 | 6230 ft | 228 kts | 119° |
| 2026-04-28 08:53 | 24.61098 | 118.28797 | 6872 ft | 226 kts | 138° |
| 2026-04-28 08:54 | 24.59802 | 118.29713 | 7484 ft | 223 kts | 165° |
| 2026-04-28 08:54 | 24.58301 | 118.29990 | 8109 ft | 221 kts | 181° |
| 2026-04-28 08:54 | 24.56773 | 118.29789 | 8711 ft | 222 kts | 201° |
| 2026-04-28 08:54 | 24.55462 | 118.28930 | 9323 ft | 222 kts | 226° |
| 2026-04-28 08:55 | 24.54543 | 118.27573 | 9923 ft | 225 kts | 244° |
| 2026-04-28 08:55 | 24.54049 | 118.25960 | 10566 ft | 225 kts | 253° |
| 2026-04-28 08:55 | 24.53493 | 118.24377 | 11203 ft | 225 kts | 240° |
| 2026-04-28 08:55 | 24.52612 | 118.22967 | 11844 ft | 226 kts | 232° |
| 2026-04-28 08:56 | 24.51615 | 118.21627 | 12464 ft | 227 kts | 231° |
| 2026-04-28 08:56 | 24.50613 | 118.20285 | 12985 ft | 234 kts | 232° |
| 2026-04-28 08:56 | 24.49582 | 118.18858 | 13350 ft | 247 kts | 233° |
| 2026-04-28 08:56 | 24.48491 | 118.17322 | 13645 ft | 265 kts | 233° |
| 2026-04-28 08:57 | 24.47314 | 118.15659 | 14081 ft | 278 kts | 233° |
| 2026-04-28 08:57 | 24.46086 | 118.13925 | 14497 ft | 293 kts | 233° |
| 2026-04-28 08:57 | 24.44791 | 118.12099 | 14912 ft | 307 kts | 233° |
| 2026-04-28 08:57 | 24.43446 | 118.10204 | 15271 ft | 322 kts | 233° |
| 2026-04-28 08:58 | 24.42034 | 118.08218 | 15664 ft | 336 kts | 233° |
| 2026-04-28 08:58 | 24.40566 | 118.06154 | 16010 ft | 351 kts | 233° |
| 2026-04-28 08:58 | 24.39035 | 118.03999 | 16381 ft | 364 kts | 233° |
| 2026-04-28 08:58 | 24.37455 | 118.01781 | 16948 ft | 370 kts | 233° |
| 2026-04-28 08:59 | 24.35878 | 117.99570 | 17589 ft | 373 kts | 233° |
| 2026-04-28 08:59 | 24.34261 | 117.97302 | 18211 ft | 376 kts | 233° |
| 2026-04-28 08:59 | 24.32649 | 117.95042 | 18771 ft | 381 kts | 233° |
| 2026-04-28 08:59 | 24.31010 | 117.92745 | 19327 ft | 385 kts | 233° |
| 2026-04-28 09:00 | 24.29374 | 117.90454 | 19916 ft | 387 kts | 233° |
| 2026-04-28 09:00 | 24.27706 | 117.88120 | 20467 ft | 390 kts | 233° |
| 2026-04-28 09:00 | 24.26021 | 117.85764 | 21002 ft | 393 kts | 233° |
| 2026-04-28 09:00 | 24.24293 | 117.83455 | 21506 ft | 396 kts | 230° |
| 2026-04-28 09:01 | 24.22417 | 117.81248 | 21978 ft | 401 kts | 227° |
| 2026-04-28 09:01 | 24.20416 | 117.79074 | 22483 ft | 404 kts | 226° |
| 2026-04-28 09:01 | 24.18387 | 117.76936 | 22978 ft | 407 kts | 225° |
| 2026-04-28 09:01 | 24.16339 | 117.74796 | 23475 ft | 410 kts | 225° |
| 2026-04-28 09:02 | 24.14259 | 117.72615 | 23921 ft | 413 kts | 225° |
| 2026-04-28 09:02 | 24.12201 | 117.70421 | 24407 ft | 415 kts | 227° |
| 2026-04-28 09:02 | 24.10252 | 117.68076 | 24869 ft | 417 kts | 233° |
| 2026-04-28 09:02 | 24.08632 | 117.65418 | 25349 ft | 418 kts | 242° |
| 2026-04-28 09:03 | 24.07472 | 117.62514 | 25823 ft | 419 kts | 251° |
| 2026-04-28 09:03 | 24.06775 | 117.59416 | 26280 ft | 421 kts | 260° |
| 2026-04-28 09:03 | 24.06483 | 117.56193 | 26665 ft | 426 kts | 266° |
| 2026-04-28 09:03 | 24.06491 | 117.52972 | 27058 ft | 430 kts | 271° |
| 2026-04-28 09:04 | 24.06723 | 117.49728 | 27498 ft | 432 kts | 274° |
| 2026-04-28 09:04 | 24.07085 | 117.46431 | 27865 ft | 436 kts | 276° |
| 2026-04-28 09:04 | 24.07497 | 117.43163 | 28256 ft | 439 kts | 276° |
| 2026-04-28 09:04 | 24.07933 | 117.39825 | 28608 ft | 443 kts | 276° |
| 2026-04-28 09:05 | 24.08363 | 117.36524 | 29032 ft | 444 kts | 276° |
| 2026-04-28 09:05 | 24.08790 | 117.33183 | 29431 ft | 446 kts | 275° |
| 2026-04-28 09:05 | 24.09209 | 117.29828 | 29860 ft | 447 kts | 275° |
| 2026-04-28 09:05 | 24.09621 | 117.26469 | 30478 ft | 443 kts | 275° |
| 2026-04-28 09:06 | 24.10021 | 117.23169 | 31140 ft | 438 kts | 274° |
| 2026-04-28 09:06 | 24.10415 | 117.19867 | 31762 ft | 434 kts | 274° |
| 2026-04-28 09:06 | 24.10800 | 117.16598 | 32352 ft | 430 kts | 274° |
| 2026-04-28 09:06 | 24.11172 | 117.13416 | 32888 ft | 426 kts | 274° |
| 2026-04-28 09:07 | 24.11546 | 117.10196 | 33369 ft | 425 kts | 274° |
| 2026-04-28 09:07 | 24.11917 | 117.06976 | 33837 ft | 424 kts | 274° |
| 2026-04-28 09:07 | 24.12281 | 117.03803 | 34025 ft | 427 kts | 274° |
| 2026-04-28 09:08 | 24.13024 | 116.97308 | 33996 ft | 424 kts | 274° |
| 2026-04-28 09:08 | 24.13751 | 116.90944 | 33997 ft | 425 kts | 274° |
| 2026-04-28 09:09 | 24.14453 | 116.84534 | 33998 ft | 424 kts | 272° |
| 2026-04-28 09:09 | 24.14800 | 116.78056 | 33995 ft | 424 kts | 270° |
| 2026-04-28 09:10 | 24.14985 | 116.71643 | 33994 ft | 425 kts | 270° |
| 2026-04-28 09:10 | 24.15186 | 116.65174 | 33993 ft | 424 kts | 270° |
| 2026-04-28 09:11 | 24.15418 | 116.58731 | 33993 ft | 424 kts | 270° |
| 2026-04-28 09:11 | 24.15664 | 116.52316 | 33999 ft | 424 kts | 270° |
| 2026-04-28 09:12 | 24.15914 | 116.45882 | 34000 ft | 424 kts | 270° |
| 2026-04-28 09:12 | 24.16228 | 116.39439 | 34001 ft | 426 kts | 272° |
| 2026-04-28 09:13 | 24.16720 | 116.32985 | 33994 ft | 427 kts | 272° |
| 2026-04-28 09:13 | 24.17246 | 116.26507 | 33992 ft | 427 kts | 272° |
| 2026-04-28 09:14 | 24.17753 | 116.20036 | 33989 ft | 427 kts | 272° |
| 2026-04-28 09:14 | 24.18244 | 116.13570 | 33981 ft | 427 kts | 272° |
| 2026-04-28 09:15 | 24.18722 | 116.07117 | 33976 ft | 427 kts | 272° |
| 2026-04-28 09:15 | 24.19200 | 116.00600 | 33969 ft | 428 kts | 272° |
| 2026-04-28 09:16 | 24.19671 | 115.94132 | 33966 ft | 427 kts | 272° |
| 2026-04-28 09:16 | 24.20140 | 115.87675 | 33964 ft | 428 kts | 272° |
| 2026-04-28 09:17 | 24.20609 | 115.81166 | 33961 ft | 428 kts | 273° |
| 2026-04-28 09:17 | 24.21071 | 115.74696 | 33960 ft | 429 kts | 273° |
| 2026-04-28 09:18 | 24.21531 | 115.68230 | 33964 ft | 428 kts | 273° |
| 2026-04-28 09:18 | 24.21991 | 115.61724 | 33966 ft | 428 kts | 273° |
| 2026-04-28 09:19 | 24.22444 | 115.55253 | 33966 ft | 429 kts | 273° |
| 2026-04-28 09:19 | 24.22896 | 115.48767 | 33961 ft | 429 kts | 273° |
| 2026-04-28 09:20 | 24.23357 | 115.42245 | 33956 ft | 429 kts | 274° |
| 2026-04-28 09:20 | 24.23913 | 115.35714 | 33951 ft | 430 kts | 275° |
| 2026-04-28 09:21 | 24.24506 | 115.29200 | 33948 ft | 430 kts | 275° |
| 2026-04-28 09:21 | 24.25092 | 115.22680 | 33947 ft | 429 kts | 275° |
| 2026-04-28 09:22 | 24.25665 | 115.16188 | 33949 ft | 429 kts | 275° |
| 2026-04-28 09:22 | 24.26234 | 115.09666 | 33949 ft | 431 kts | 275° |
| 2026-04-28 09:23 | 24.26799 | 115.03116 | 33950 ft | 433 kts | 275° |
| 2026-04-28 09:23 | 24.27360 | 114.96574 | 33954 ft | 433 kts | 275° |
| 2026-04-28 09:24 | 24.27918 | 114.90044 | 33954 ft | 431 kts | 275° |
| 2026-04-28 09:24 | 24.28473 | 114.83520 | 33955 ft | 432 kts | 275° |
| 2026-04-28 09:25 | 24.29044 | 114.76978 | 33957 ft | 432 kts | 275° |
| 2026-04-28 09:25 | 24.29622 | 114.70441 | 33959 ft | 431 kts | 275° |
| 2026-04-28 09:26 | 24.30195 | 114.63924 | 33963 ft | 430 kts | 275° |
| 2026-04-28 09:26 | 24.30760 | 114.57433 | 33964 ft | 431 kts | 275° |
| 2026-04-28 09:27 | 24.31609 | 114.47667 | 33971 ft | 430 kts | 276° |
| 2026-04-28 09:27 | 24.32216 | 114.41138 | 33978 ft | 430 kts | 276° |
| 2026-04-28 09:28 | 24.32832 | 114.34612 | 33982 ft | 431 kts | 276° |
| 2026-04-28 09:28 | 24.33440 | 114.28129 | 33989 ft | 430 kts | 276° |
| 2026-04-28 09:29 | 24.34045 | 114.21619 | 33993 ft | 429 kts | 276° |
| 2026-04-28 09:29 | 24.34642 | 114.15145 | 33983 ft | 429 kts | 276° |
| 2026-04-28 09:30 | 24.35249 | 114.08621 | 33985 ft | 429 kts | 276° |
| 2026-04-28 09:30 | 24.35923 | 114.02139 | 33973 ft | 429 kts | 277° |
| 2026-04-28 09:31 | 24.36621 | 113.95657 | 33965 ft | 427 kts | 277° |
| 2026-04-28 09:31 | 24.37311 | 113.89191 | 33954 ft | 430 kts | 276° |
| 2026-04-28 09:32 | 24.37993 | 113.82709 | 33947 ft | 429 kts | 276° |
| 2026-04-28 09:32 | 24.38668 | 113.76235 | 33932 ft | 427 kts | 276° |
| 2026-04-28 09:33 | 24.39338 | 113.69754 | 33931 ft | 429 kts | 276° |
| 2026-04-28 09:33 | 24.40003 | 113.63281 | 33936 ft | 428 kts | 276° |
| 2026-04-28 09:34 | 24.40663 | 113.56834 | 33937 ft | 428 kts | 276° |
| 2026-04-28 09:34 | 24.41324 | 113.50358 | 33939 ft | 427 kts | 276° |
| 2026-04-28 09:35 | 24.41984 | 113.43885 | 33951 ft | 426 kts | 276° |
| 2026-04-28 09:35 | 24.42641 | 113.37435 | 33964 ft | 428 kts | 276° |
| 2026-04-28 09:36 | 24.43307 | 113.30975 | 33982 ft | 427 kts | 276° |
| 2026-04-28 09:36 | 24.43972 | 113.24530 | 33999 ft | 427 kts | 276° |
| 2026-04-28 09:37 | 24.44636 | 113.18055 | 33996 ft | 426 kts | 276° |
| 2026-04-28 09:37 | 24.45291 | 113.11644 | 33983 ft | 426 kts | 276° |
| 2026-04-28 09:38 | 24.45948 | 113.05189 | 33970 ft | 427 kts | 275° |
| 2026-04-28 09:38 | 24.46602 | 112.98696 | 33955 ft | 426 kts | 275° |
| 2026-04-28 09:39 | 24.47239 | 112.92300 | 33949 ft | 426 kts | 275° |
| 2026-04-28 09:39 | 24.47880 | 112.85828 | 33943 ft | 427 kts | 275° |
| 2026-04-28 09:40 | 24.48519 | 112.79342 | 33939 ft | 426 kts | 275° |
| 2026-04-28 09:40 | 24.49153 | 112.72896 | 33932 ft | 428 kts | 275° |
| 2026-04-28 09:41 | 24.49797 | 112.66388 | 33938 ft | 429 kts | 275° |
| 2026-04-28 09:41 | 24.50434 | 112.59895 | 33947 ft | 427 kts | 275° |
| 2026-04-28 09:42 | 24.51068 | 112.53403 | 33947 ft | 429 kts | 275° |
| 2026-04-28 09:42 | 24.51696 | 112.46901 | 33938 ft | 428 kts | 276° |
| 2026-04-28 09:43 | 24.52331 | 112.40413 | 33940 ft | 428 kts | 275° |
| 2026-04-28 09:43 | 24.52960 | 112.33888 | 33936 ft | 430 kts | 275° |
| 2026-04-28 09:44 | 24.53583 | 112.27390 | 33939 ft | 428 kts | 275° |
| 2026-04-28 09:44 | 24.54199 | 112.20912 | 33928 ft | 431 kts | 275° |
| 2026-04-28 09:45 | 24.54821 | 112.14339 | 33940 ft | 432 kts | 275° |
| 2026-04-28 09:45 | 24.55435 | 112.07834 | 33947 ft | 430 kts | 275° |
| 2026-04-28 09:46 | 24.56046 | 112.01320 | 33957 ft | 432 kts | 275° |
| 2026-04-28 09:46 | 24.56657 | 111.94772 | 33953 ft | 431 kts | 275° |
| 2026-04-28 09:47 | 24.57265 | 111.88234 | 33950 ft | 432 kts | 275° |
| 2026-04-28 09:47 | 24.57872 | 111.81680 | 33945 ft | 433 kts | 275° |
| 2026-04-28 09:48 | 24.58475 | 111.75120 | 33941 ft | 434 kts | 275° |
| 2026-04-28 09:48 | 24.59078 | 111.68517 | 33932 ft | 434 kts | 275° |
| 2026-04-28 09:49 | 24.59681 | 111.61923 | 33926 ft | 436 kts | 274° |
| 2026-04-28 09:49 | 24.60282 | 111.55304 | 33918 ft | 437 kts | 274° |
| 2026-04-28 09:50 | 24.60885 | 111.48646 | 33911 ft | 437 kts | 274° |
| 2026-04-28 09:50 | 24.61480 | 111.42048 | 33913 ft | 437 kts | 275° |
| 2026-04-28 09:51 | 24.62078 | 111.35420 | 33914 ft | 436 kts | 274° |
| 2026-04-28 09:51 | 24.62661 | 111.28786 | 33919 ft | 437 kts | 274° |
| 2026-04-28 09:52 | 24.63225 | 111.22118 | 33918 ft | 438 kts | 273° |
| 2026-04-28 09:52 | 24.63796 | 111.15418 | 33926 ft | 439 kts | 273° |
| 2026-04-28 09:53 | 24.64376 | 111.08746 | 33938 ft | 439 kts | 274° |
| 2026-04-28 09:53 | 24.64950 | 111.02068 | 33941 ft | 440 kts | 273° |
| 2026-04-28 09:54 | 24.65520 | 110.95382 | 33941 ft | 440 kts | 273° |
| 2026-04-28 09:54 | 24.66080 | 110.88753 | 33932 ft | 440 kts | 273° |
| 2026-04-28 09:55 | 24.66867 | 110.82080 | 33913 ft | 441 kts | 281° |
| 2026-04-28 09:55 | 24.69310 | 110.75897 | 33915 ft | 450 kts | 302° |
| 2026-04-28 09:56 | 24.73502 | 110.70672 | 33911 ft | 456 kts | 312° |
| 2026-04-28 09:56 | 24.78057 | 110.65847 | 33913 ft | 458 kts | 314° |
| 2026-04-28 09:57 | 24.82713 | 110.61041 | 33920 ft | 458 kts | 314° |
| 2026-04-28 09:57 | 24.87345 | 110.56230 | 33921 ft | 458 kts | 313° |
| 2026-04-28 09:58 | 24.91961 | 110.51400 | 33922 ft | 458 kts | 313° |
| 2026-04-28 09:58 | 24.96561 | 110.46555 | 33925 ft | 458 kts | 313° |
| 2026-04-28 09:59 | 25.01171 | 110.41685 | 33931 ft | 458 kts | 313° |
| 2026-04-28 09:59 | 25.05790 | 110.36805 | 33921 ft | 460 kts | 313° |
| 2026-04-28 10:00 | 25.10397 | 110.31941 | 33913 ft | 460 kts | 312° |
| 2026-04-28 10:00 | 25.15028 | 110.27048 | 33907 ft | 460 kts | 312° |
| 2026-04-28 10:01 | 25.19641 | 110.22163 | 33907 ft | 460 kts | 312° |
| 2026-04-28 10:01 | 25.24281 | 110.17268 | 33898 ft | 461 kts | 313° |
| 2026-04-28 10:02 | 25.28918 | 110.12419 | 33910 ft | 463 kts | 313° |
| 2026-04-28 10:02 | 25.33612 | 110.07535 | 33920 ft | 464 kts | 312° |
| 2026-04-28 10:03 | 25.38278 | 110.02644 | 33921 ft | 463 kts | 312° |
| 2026-04-28 10:03 | 25.42949 | 109.97724 | 33941 ft | 462 kts | 312° |
| 2026-04-28 10:04 | 25.47583 | 109.92838 | 33956 ft | 462 kts | 312° |
| 2026-04-28 10:04 | 25.52238 | 109.87931 | 33966 ft | 464 kts | 312° |
| 2026-04-28 10:05 | 25.56930 | 109.82979 | 33971 ft | 464 kts | 312° |
| 2026-04-28 10:05 | 25.61607 | 109.78045 | 33972 ft | 463 kts | 312° |
| 2026-04-28 10:06 | 25.66257 | 109.73136 | 33979 ft | 464 kts | 312° |
| 2026-04-28 10:06 | 25.67824 | 109.71478 | 33978 ft | 465 kts | 312° |